Terminal Aerodrome Forecast
Issued by NWS Tulsa, OK

Home | Current Version | Previous Version | Text Only | Print | Product List | Glossary On
Versions: 1 2 3 4 5 6 7 8 9 10 11 12 13
761
FTUS44 KTSA 241120
TAFTUL
TAF
KTUL 241120Z 2412/2512 12007KT P6SM SCT250
     FM241600 18011G18KT P6SM SCT050
     FM250100 14006KT P6SM FEW050 BKN250=

USA.gov is the U.S. government's official web portal to all federal, state and local government web resources and services.